Archival Weather

NSFA McMurdo Sound

NSFA McMurdo Sound, Antarctica (NZCM)

Report from: Saturday, April 1, 2023 1:55 PM UTC
Current time: Monday, July 22, 2024 10:04 AM UTC

Current weather – Weather history – Daily summaries
Weather forecast

Temperature-19.2°C (-2.6°F)
Wind chill-23.8°C (-10.8°F)
Dew point-24.5°C (-12.1°F)
Winds 3 kts (1.5 m/s, 3.5 mph) North-Northeast (20°)
Visibility6.2 mi. (10 km)
Clouds Sky clear
Altimeter29.85 in.Hg (1011 mB)
Relative humidity63 %
Density altitude-4,295 ft. (-1,309 m)
Sea-level pressure101.2 kPa (1012 mB, 29.87 in.Hg)
Remarks Fully automated report
Automated weather observing station with precipitation discriminator
Flight conditions Visual Meteorological Conditions
Raw dataNZCM 011355Z AUTO 02003KT 9999 CLR M19/M24 A2985 RMK AO2 SLP116 T11921245
An error has occurred. This application may no longer respond until reloaded. Reload 🗙